sensor_id;sensor_type;location;lat;lon;timestamp;P1;durP1;ratioP1;P2;durP2;ratioP2
4311;SDS011;2169;49.086;9.284;2024-01-30T00:00:52;3.40;;;3.20;;
4311;SDS011;2169;49.086;9.284;2024-01-30T00:03:19;5.00;;;4.05;;
4311;SDS011;2169;49.086;9.284;2024-01-30T00:05:46;3.25;;;3.15;;
4311;SDS011;2169;49.086;9.284;2024-01-30T00:08:13;11.98;;;4.85;;
4311;SDS011;2169;49.086;9.284;2024-01-30T00:10:40;18.70;;;4.30;;
4311;SDS011;2169;49.086;9.284;2024-01-30T00:13:07;5.22;;;3.25;;
4311;SDS011;2169;49.086;9.284;2024-01-30T00:15:34;5.85;;;3.60;;
4311;SDS011;2169;49.086;9.284;2024-01-30T00:18:02;8.60;;;4.70;;
4311;SDS011;2169;49.086;9.284;2024-01-30T00:20:29;3.92;;;3.72;;
4311;SDS011;2169;49.086;9.284;2024-01-30T00:22:56;3.00;;;2.40;;
4311;SDS011;2169;49.086;9.284;2024-01-30T00:25:23;4.18;;;3.78;;
4311;SDS011;2169;49.086;9.284;2024-01-30T00:27:50;5.70;;;4.80;;
4311;SDS011;2169;49.086;9.284;2024-01-30T00:30:17;6.38;;;3.05;;
4311;SDS011;2169;49.086;9.284;2024-01-30T00:32:44;3.50;;;3.30;;
4311;SDS011;2169;49.086;9.284;2024-01-30T00:35:13;4.85;;;4.53;;
4311;SDS011;2169;49.086;9.284;2024-01-30T00:37:40;5.30;;;3.22;;
4311;SDS011;2169;49.086;9.284;2024-01-30T00:40:07;4.80;;;2.67;;
4311;SDS011;2169;49.086;9.284;2024-01-30T00:42:38;4.38;;;4.03;;
4311;SDS011;2169;49.086;9.284;2024-01-30T00:45:05;3.05;;;2.85;;
4311;SDS011;2169;49.086;9.284;2024-01-30T00:47:37;4.28;;;3.03;;
4311;SDS011;2169;49.086;9.284;2024-01-30T00:50:04;5.35;;;3.63;;
4311;SDS011;2169;49.086;9.284;2024-01-30T00:52:34;5.25;;;3.88;;
4311;SDS011;2169;49.086;9.284;2024-01-30T00:55:00;3.13;;;2.83;;
4311;SDS011;2169;49.086;9.284;2024-01-30T00:57:28;2.65;;;2.55;;
4311;SDS011;2169;49.086;9.284;2024-01-30T00:59:55;11.40;;;2.72;;
4311;SDS011;2169;49.086;9.284;2024-01-30T01:02:23;4.43;;;3.28;;
4311;SDS011;2169;49.086;9.284;2024-01-30T01:04:49;3.63;;;3.17;;
4311;SDS011;2169;49.086;9.284;2024-01-30T01:07:16;3.65;;;2.30;;
4311;SDS011;2169;49.086;9.284;2024-01-30T01:09:44;4.30;;;3.03;;
4311;SDS011;2169;49.086;9.284;2024-01-30T01:12:11;3.90;;;3.60;;
4311;SDS011;2169;49.086;9.284;2024-01-30T01:14:38;4.75;;;3.63;;
4311;SDS011;2169;49.086;9.284;2024-01-30T01:17:05;4.15;;;3.95;;
4311;SDS011;2169;49.086;9.284;2024-01-30T01:19:32;5.38;;;3.10;;
4311;SDS011;2169;49.086;9.284;2024-01-30T01:22:00;4.00;;;3.47;;
4311;SDS011;2169;49.086;9.284;2024-01-30T01:24:28;4.25;;;2.50;;
4311;SDS011;2169;49.086;9.284;2024-01-30T01:26:57;3.35;;;3.15;;
4311;SDS011;2169;49.086;9.284;2024-01-30T01:29:24;2.42;;;2.22;;
4311;SDS011;2169;49.086;9.284;2024-01-30T01:31:53;7.45;;;3.55;;
4311;SDS011;2169;49.086;9.284;2024-01-30T01:34:21;3.13;;;2.88;;
4311;SDS011;2169;49.086;9.284;2024-01-30T01:36:48;4.78;;;1.95;;
4311;SDS011;2169;49.086;9.284;2024-01-30T01:39:15;3.15;;;2.95;;
4311;SDS011;2169;49.086;9.284;2024-01-30T01:41:42;3.55;;;2.65;;
4311;SDS011;2169;49.086;9.284;2024-01-30T01:44:10;3.60;;;2.88;;
4311;SDS011;2169;49.086;9.284;2024-01-30T01:46:37;3.53;;;2.30;;
4311;SDS011;2169;49.086;9.284;2024-01-30T01:49:05;6.00;;;2.55;;
4311;SDS011;2169;49.086;9.284;2024-01-30T01:51:33;3.88;;;2.30;;
4311;SDS011;2169;49.086;9.284;2024-01-30T01:54:02;4.50;;;2.92;;
4311;SDS011;2169;49.086;9.284;2024-01-30T01:56:30;1.90;;;1.70;;
4311;SDS011;2169;49.086;9.284;2024-01-30T01:58:59;2.33;;;2.13;;
4311;SDS011;2169;49.086;9.284;2024-01-30T02:01:30;2.35;;;2.28;;
4311;SDS011;2169;49.086;9.284;2024-01-30T02:03:58;2.85;;;1.77;;
4311;SDS011;2169;49.086;9.284;2024-01-30T02:06:26;3.33;;;2.05;;
4311;SDS011;2169;49.086;9.284;2024-01-30T02:08:53;1.85;;;1.85;;
4311;SDS011;2169;49.086;9.284;2024-01-30T02:11:20;2.40;;;2.30;;
4311;SDS011;2169;49.086;9.284;2024-01-30T02:13:48;3.15;;;2.45;;
4311;SDS011;2169;49.086;9.284;2024-01-30T02:16:15;1.40;;;1.40;;
4311;SDS011;2169;49.086;9.284;2024-01-30T02:18:43;2.42;;;2.25;;
4311;SDS011;2169;49.086;9.284;2024-01-30T02:21:14;1.92;;;1.83;;
4311;SDS011;2169;49.086;9.284;2024-01-30T02:23:43;3.03;;;2.83;;
4311;SDS011;2169;49.086;9.284;2024-01-30T02:26:10;3.05;;;2.30;;
4311;SDS011;2169;49.086;9.284;2024-01-30T02:28:37;2.42;;;1.98;;
4311;SDS011;2169;49.086;9.284;2024-01-30T02:31:04;2.08;;;1.98;;
4311;SDS011;2169;49.086;9.284;2024-01-30T02:33:31;3.42;;;3.22;;
4311;SDS011;2169;49.086;9.284;2024-01-30T02:35:58;2.33;;;1.85;;
4311;SDS011;2169;49.086;9.284;2024-01-30T02:38:27;2.35;;;2.00;;
4311;SDS011;2169;49.086;9.284;2024-01-30T02:40:54;7.43;;;2.75;;
4311;SDS011;2169;49.086;9.284;2024-01-30T02:43:22;2.03;;;1.83;;
4311;SDS011;2169;49.086;9.284;2024-01-30T02:45:49;6.22;;;2.40;;
4311;SDS011;2169;49.086;9.284;2024-01-30T02:48:16;5.20;;;3.85;;
4311;SDS011;2169;49.086;9.284;2024-01-30T02:50:43;3.80;;;2.50;;
4311;SDS011;2169;49.086;9.284;2024-01-30T02:53:11;2.67;;;2.50;;
4311;SDS011;2169;49.086;9.284;2024-01-30T02:55:39;2.30;;;2.08;;
4311;SDS011;2169;49.086;9.284;2024-01-30T02:58:06;2.83;;;2.60;;
4311;SDS011;2169;49.086;9.284;2024-01-30T03:00:32;6.40;;;3.20;;
4311;SDS011;2169;49.086;9.284;2024-01-30T03:02:59;2.90;;;2.28;;
4311;SDS011;2169;49.086;9.284;2024-01-30T03:05:27;3.80;;;3.40;;
4311;SDS011;2169;49.086;9.284;2024-01-30T03:07:54;3.10;;;2.90;;
4311;SDS011;2169;49.086;9.284;2024-01-30T03:10:21;5.38;;;2.92;;
4311;SDS011;2169;49.086;9.284;2024-01-30T03:12:49;1.83;;;1.63;;
4311;SDS011;2169;49.086;9.284;2024-01-30T03:15:16;3.55;;;3.20;;
4311;SDS011;2169;49.086;9.284;2024-01-30T03:17:42;2.75;;;2.22;;
4311;SDS011;2169;49.086;9.284;2024-01-30T03:20:10;2.08;;;1.90;;
4311;SDS011;2169;49.086;9.284;2024-01-30T03:22:37;2.65;;;2.45;;
4311;SDS011;2169;49.086;9.284;2024-01-30T03:25:04;2.13;;;1.92;;
4311;SDS011;2169;49.086;9.284;2024-01-30T03:27:32;3.22;;;2.40;;
4311;SDS011;2169;49.086;9.284;2024-01-30T03:30:03;2.80;;;2.53;;
4311;SDS011;2169;49.086;9.284;2024-01-30T03:32:30;2.35;;;2.25;;
4311;SDS011;2169;49.086;9.284;2024-01-30T03:34:57;3.25;;;2.28;;
4311;SDS011;2169;49.086;9.284;2024-01-30T03:37:24;2.13;;;2.03;;
4311;SDS011;2169;49.086;9.284;2024-01-30T03:39:51;2.75;;;2.17;;
4311;SDS011;2169;49.086;9.284;2024-01-30T03:42:18;1.90;;;1.80;;
4311;SDS011;2169;49.086;9.284;2024-01-30T03:44:44;3.05;;;2.75;;
4311;SDS011;2169;49.086;9.284;2024-01-30T03:47:13;4.07;;;1.85;;
4311;SDS011;2169;49.086;9.284;2024-01-30T03:49:40;2.00;;;1.90;;
4311;SDS011;2169;49.086;9.284;2024-01-30T03:52:07;2.55;;;2.45;;
4311;SDS011;2169;49.086;9.284;2024-01-30T03:54:34;3.10;;;1.83;;
4311;SDS011;2169;49.086;9.284;2024-01-30T03:57:01;2.40;;;2.20;;
4311;SDS011;2169;49.086;9.284;2024-01-30T03:59:28;4.55;;;2.20;;
4311;SDS011;2169;49.086;9.284;2024-01-30T04:01:55;12.20;;;3.10;;
4311;SDS011;2169;49.086;9.284;2024-01-30T04:04:23;8.95;;;2.90;;
4311;SDS011;2169;49.086;9.284;2024-01-30T04:06:50;2.85;;;2.08;;
4311;SDS011;2169;49.086;9.284;2024-01-30T04:09:17;3.15;;;2.20;;
4311;SDS011;2169;49.086;9.284;2024-01-30T04:11:44;2.40;;;2.20;;
4311;SDS011;2169;49.086;9.284;2024-01-30T04:14:11;4.47;;;2.17;;
4311;SDS011;2169;49.086;9.284;2024-01-30T04:16:38;2.45;;;2.35;;
4311;SDS011;2169;49.086;9.284;2024-01-30T04:19:04;3.75;;;2.17;;
4311;SDS011;2169;49.086;9.284;2024-01-30T04:21:33;2.13;;;2.03;;
4311;SDS011;2169;49.086;9.284;2024-01-30T04:24:00;3.90;;;2.00;;
4311;SDS011;2169;49.086;9.284;2024-01-30T04:26:27;2.55;;;2.45;;
4311;SDS011;2169;49.086;9.284;2024-01-30T04:28:53;7.53;;;1.95;;
4311;SDS011;2169;49.086;9.284;2024-01-30T04:31:20;2.25;;;2.15;;
4311;SDS011;2169;49.086;9.284;2024-01-30T04:33:47;1.98;;;1.85;;
4311;SDS011;2169;49.086;9.284;2024-01-30T04:36:14;1.75;;;1.65;;
4311;SDS011;2169;49.086;9.284;2024-01-30T04:38:42;4.35;;;1.25;;
4311;SDS011;2169;49.086;9.284;2024-01-30T04:41:09;3.28;;;2.72;;
4311;SDS011;2169;49.086;9.284;2024-01-30T04:43:36;3.97;;;2.33;;
4311;SDS011;2169;49.086;9.284;2024-01-30T04:46:03;1.95;;;1.63;;
4311;SDS011;2169;49.086;9.284;2024-01-30T04:48:31;2.70;;;2.45;;
4311;SDS011;2169;49.086;9.284;2024-01-30T04:50:58;3.13;;;2.17;;
4311;SDS011;2169;49.086;9.284;2024-01-30T04:53:27;2.85;;;2.20;;
4311;SDS011;2169;49.086;9.284;2024-01-30T04:55:57;2.97;;;2.78;;
4311;SDS011;2169;49.086;9.284;2024-01-30T04:58:24;2.28;;;2.05;;
4311;SDS011;2169;49.086;9.284;2024-01-30T05:00:51;2.17;;;2.08;;
4311;SDS011;2169;49.086;9.284;2024-01-30T05:03:17;2.40;;;2.17;;
4311;SDS011;2169;49.086;9.284;2024-01-30T05:05:45;3.40;;;3.22;;
4311;SDS011;2169;49.086;9.284;2024-01-30T05:08:12;1.85;;;1.75;;
4311;SDS011;2169;49.086;9.284;2024-01-30T05:10:38;10.38;;;2.58;;
4311;SDS011;2169;49.086;9.284;2024-01-30T05:13:07;4.10;;;3.80;;
4311;SDS011;2169;49.086;9.284;2024-01-30T05:15:33;4.35;;;3.13;;
4311;SDS011;2169;49.086;9.284;2024-01-30T05:18:00;4.10;;;2.40;;
4311;SDS011;2169;49.086;9.284;2024-01-30T05:20:27;3.85;;;3.38;;
4311;SDS011;2169;49.086;9.284;2024-01-30T05:22:54;3.42;;;3.22;;
4311;SDS011;2169;49.086;9.284;2024-01-30T05:25:21;2.58;;;2.38;;
4311;SDS011;2169;49.086;9.284;2024-01-30T05:27:48;9.13;;;3.20;;
4311;SDS011;2169;49.086;9.284;2024-01-30T05:30:16;2.60;;;2.47;;
4311;SDS011;2169;49.086;9.284;2024-01-30T05:32:44;54.08;;;4.10;;
4311;SDS011;2169;49.086;9.284;2024-01-30T05:35:11;3.00;;;2.83;;
4311;SDS011;2169;49.086;9.284;2024-01-30T05:37:38;4.43;;;3.90;;
4311;SDS011;2169;49.086;9.284;2024-01-30T05:40:05;1.73;;;1.63;;
4311;SDS011;2169;49.086;9.284;2024-01-30T05:42:33;2.30;;;2.20;;
4311;SDS011;2169;49.086;9.284;2024-01-30T05:45:00;7.43;;;4.20;;
4311;SDS011;2169;49.086;9.284;2024-01-30T05:47:28;2.15;;;2.05;;
4311;SDS011;2169;49.086;9.284;2024-01-30T05:49:55;4.20;;;2.10;;
4311;SDS011;2169;49.086;9.284;2024-01-30T05:52:23;2.90;;;2.35;;
4311;SDS011;2169;49.086;9.284;2024-01-30T05:54:50;1.98;;;1.88;;
4311;SDS011;2169;49.086;9.284;2024-01-30T05:57:17;6.60;;;4.63;;
4311;SDS011;2169;49.086;9.284;2024-01-30T05:59:58;2.67;;;2.45;;
4311;SDS011;2169;49.086;9.284;2024-01-30T06:02:25;2.38;;;2.28;;
4311;SDS011;2169;49.086;9.284;2024-01-30T06:04:54;3.03;;;2.55;;
4311;SDS011;2169;49.086;9.284;2024-01-30T06:07:20;5.43;;;2.83;;
4311;SDS011;2169;49.086;9.284;2024-01-30T06:09:48;4.40;;;4.10;;
4311;SDS011;2169;49.086;9.284;2024-01-30T06:12:15;5.07;;;3.97;;
4311;SDS011;2169;49.086;9.284;2024-01-30T06:14:42;2.55;;;2.28;;
4311;SDS011;2169;49.086;9.284;2024-01-30T06:17:08;1.85;;;1.75;;
4311;SDS011;2169;49.086;9.284;2024-01-30T06:19:36;2.30;;;2.10;;
4311;SDS011;2169;49.086;9.284;2024-01-30T06:22:05;1.65;;;1.55;;
4311;SDS011;2169;49.086;9.284;2024-01-30T06:24:32;2.97;;;2.78;;
4311;SDS011;2169;49.086;9.284;2024-01-30T06:27:00;2.45;;;2.25;;
4311;SDS011;2169;49.086;9.284;2024-01-30T06:29:26;4.40;;;2.83;;
4311;SDS011;2169;49.086;9.284;2024-01-30T06:31:54;2.33;;;2.17;;
4311;SDS011;2169;49.086;9.284;2024-01-30T06:34:21;2.67;;;2.47;;
4311;SDS011;2169;49.086;9.284;2024-01-30T06:36:48;3.13;;;3.00;;
4311;SDS011;2169;49.086;9.284;2024-01-30T06:39:16;4.22;;;3.08;;
4311;SDS011;2169;49.086;9.284;2024-01-30T06:41:43;2.35;;;2.10;;
4311;SDS011;2169;49.086;9.284;2024-01-30T06:44:11;2.60;;;2.38;;
4311;SDS011;2169;49.086;9.284;2024-01-30T06:46:39;3.42;;;3.20;;
4311;SDS011;2169;49.086;9.284;2024-01-30T06:49:06;2.45;;;2.25;;
4311;SDS011;2169;49.086;9.284;2024-01-30T06:51:33;2.85;;;2.65;;
4311;SDS011;2169;49.086;9.284;2024-01-30T06:54:00;2.70;;;2.53;;
4311;SDS011;2169;49.086;9.284;2024-01-30T06:56:36;3.90;;;2.15;;
4311;SDS011;2169;49.086;9.284;2024-01-30T06:59:02;1.67;;;1.58;;
4311;SDS011;2169;49.086;9.284;2024-01-30T07:01:30;2.42;;;2.22;;
4311;SDS011;2169;49.086;9.284;2024-01-30T07:03:57;3.22;;;3.03;;
4311;SDS011;2169;49.086;9.284;2024-01-30T07:06:24;3.20;;;2.85;;
4311;SDS011;2169;49.086;9.284;2024-01-30T07:08:51;3.20;;;2.63;;
4311;SDS011;2169;49.086;9.284;2024-01-30T07:11:18;3.40;;;3.20;;
4311;SDS011;2169;49.086;9.284;2024-01-30T07:13:48;2.20;;;1.90;;
4311;SDS011;2169;49.086;9.284;2024-01-30T07:16:15;3.78;;;3.40;;
4311;SDS011;2169;49.086;9.284;2024-01-30T07:18:42;2.47;;;2.38;;
4311;SDS011;2169;49.086;9.284;2024-01-30T07:21:10;4.28;;;3.90;;
4311;SDS011;2169;49.086;9.284;2024-01-30T07:23:37;2.47;;;2.38;;
4311;SDS011;2169;49.086;9.284;2024-01-30T07:26:04;5.88;;;5.47;;
4311;SDS011;2169;49.086;9.284;2024-01-30T07:28:32;6.32;;;4.88;;
4311;SDS011;2169;49.086;9.284;2024-01-30T07:31:00;3.15;;;2.95;;
4311;SDS011;2169;49.086;9.284;2024-01-30T07:33:28;5.25;;;3.75;;
4311;SDS011;2169;49.086;9.284;2024-01-30T07:35:55;5.82;;;2.65;;
4311;SDS011;2169;49.086;9.284;2024-01-30T07:38:22;4.95;;;4.60;;
4311;SDS011;2169;49.086;9.284;2024-01-30T07:40:49;3.15;;;2.85;;
4311;SDS011;2169;49.086;9.284;2024-01-30T07:43:16;5.53;;;4.25;;
4311;SDS011;2169;49.086;9.284;2024-01-30T07:45:43;10.63;;;6.03;;
4311;SDS011;2169;49.086;9.284;2024-01-30T07:48:11;9.25;;;5.50;;
4311;SDS011;2169;49.086;9.284;2024-01-30T07:50:39;9.00;;;5.90;;
4311;SDS011;2169;49.086;9.284;2024-01-30T07:53:06;9.38;;;4.65;;
4311;SDS011;2169;49.086;9.284;2024-01-30T07:55:32;8.75;;;6.45;;
4311;SDS011;2169;49.086;9.284;2024-01-30T07:57:59;7.05;;;5.47;;
4311;SDS011;2169;49.086;9.284;2024-01-30T08:00:28;4.05;;;3.70;;
4311;SDS011;2169;49.086;9.284;2024-01-30T08:02:58;5.07;;;4.55;;
4311;SDS011;2169;49.086;9.284;2024-01-30T08:05:26;4.85;;;4.18;;
4311;SDS011;2169;49.086;9.284;2024-01-30T08:07:53;6.15;;;5.70;;
4311;SDS011;2169;49.086;9.284;2024-01-30T08:10:20;6.45;;;5.78;;
4311;SDS011;2169;49.086;9.284;2024-01-30T08:12:56;5.85;;;5.55;;
4311;SDS011;2169;49.086;9.284;2024-01-30T08:15:23;8.05;;;6.65;;
4311;SDS011;2169;49.086;9.284;2024-01-30T08:17:50;12.77;;;6.85;;
4311;SDS011;2169;49.086;9.284;2024-01-30T08:20:20;12.20;;;5.93;;
4311;SDS011;2169;49.086;9.284;2024-01-30T08:25:31;8.63;;;6.53;;
4311;SDS011;2169;49.086;9.284;2024-01-30T08:27:58;8.32;;;7.43;;
4311;SDS011;2169;49.086;9.284;2024-01-30T08:30:25;19.55;;;7.53;;
4311;SDS011;2169;49.086;9.284;2024-01-30T08:32:52;11.38;;;6.30;;
4311;SDS011;2169;49.086;9.284;2024-01-30T08:35:22;9.68;;;4.32;;
4311;SDS011;2169;49.086;9.284;2024-01-30T08:37:49;8.38;;;4.85;;
4311;SDS011;2169;49.086;9.284;2024-01-30T08:40:17;8.18;;;5.53;;
4311;SDS011;2169;49.086;9.284;2024-01-30T08:42:44;7.03;;;6.25;;
4311;SDS011;2169;49.086;9.284;2024-01-30T08:45:11;6.82;;;5.80;;
4311;SDS011;2169;49.086;9.284;2024-01-30T08:47:50;9.43;;;6.35;;
4311;SDS011;2169;49.086;9.284;2024-01-30T08:50:17;7.75;;;7.05;;
4311;SDS011;2169;49.086;9.284;2024-01-30T08:52:44;6.30;;;5.70;;
4311;SDS011;2169;49.086;9.284;2024-01-30T08:55:10;17.10;;;5.45;;
4311;SDS011;2169;49.086;9.284;2024-01-30T09:00:30;7.47;;;5.65;;
4311;SDS011;2169;49.086;9.284;2024-01-30T09:02:57;12.82;;;8.65;;
4311;SDS011;2169;49.086;9.284;2024-01-30T09:05:24;9.35;;;6.57;;
4311;SDS011;2169;49.086;9.284;2024-01-30T09:08:01;6.82;;;6.20;;
4311;SDS011;2169;49.086;9.284;2024-01-30T09:10:37;8.13;;;5.82;;
4311;SDS011;2169;49.086;9.284;2024-01-30T09:13:05;26.30;;;8.68;;
4311;SDS011;2169;49.086;9.284;2024-01-30T09:15:32;5.03;;;4.10;;
4311;SDS011;2169;49.086;9.284;2024-01-30T09:18:19;10.85;;;4.80;;
4311;SDS011;2169;49.086;9.284;2024-01-30T09:20:46;6.45;;;4.82;;
4311;SDS011;2169;49.086;9.284;2024-01-30T09:23:14;6.80;;;5.73;;
4311;SDS011;2169;49.086;9.284;2024-01-30T09:25:42;10.52;;;7.03;;
4311;SDS011;2169;49.086;9.284;2024-01-30T09:28:25;9.98;;;4.03;;
4311;SDS011;2169;49.086;9.284;2024-01-30T09:30:52;5.83;;;4.80;;
4311;SDS011;2169;49.086;9.284;2024-01-30T09:33:19;4.87;;;4.47;;
4311;SDS011;2169;49.086;9.284;2024-01-30T09:35:46;6.50;;;5.97;;
4311;SDS011;2169;49.086;9.284;2024-01-30T09:38:16;8.03;;;6.37;;
4311;SDS011;2169;49.086;9.284;2024-01-30T09:40:58;6.45;;;5.88;;
4311;SDS011;2169;49.086;9.284;2024-01-30T09:43:34;10.20;;;7.63;;
4311;SDS011;2169;49.086;9.284;2024-01-30T09:46:02;6.10;;;5.10;;
4311;SDS011;2169;49.086;9.284;2024-01-30T09:48:41;6.33;;;5.83;;
4311;SDS011;2169;49.086;9.284;2024-01-30T09:51:09;8.88;;;6.63;;
4311;SDS011;2169;49.086;9.284;2024-01-30T09:53:37;9.70;;;6.50;;
4311;SDS011;2169;49.086;9.284;2024-01-30T09:56:05;8.23;;;4.75;;
4311;SDS011;2169;49.086;9.284;2024-01-30T10:01:19;5.53;;;4.73;;
4311;SDS011;2169;49.086;9.284;2024-01-30T10:03:47;9.90;;;6.57;;
4311;SDS011;2169;49.086;9.284;2024-01-30T10:06:17;5.43;;;5.07;;
4311;SDS011;2169;49.086;9.284;2024-01-30T10:08:55;4.73;;;4.40;;
4311;SDS011;2169;49.086;9.284;2024-01-30T10:11:22;8.37;;;4.50;;
4311;SDS011;2169;49.086;9.284;2024-01-30T10:13:49;7.00;;;5.90;;
4311;SDS011;2169;49.086;9.284;2024-01-30T10:16:17;7.30;;;4.97;;
4311;SDS011;2169;49.086;9.284;2024-01-30T10:18:45;5.80;;;5.30;;
4311;SDS011;2169;49.086;9.284;2024-01-30T10:21:31;12.03;;;6.13;;
4311;SDS011;2169;49.086;9.284;2024-01-30T10:23:58;6.43;;;5.70;;
4311;SDS011;2169;49.086;9.284;2024-01-30T10:26:25;6.60;;;5.83;;
4311;SDS011;2169;49.086;9.284;2024-01-30T10:28:53;8.07;;;5.00;;
4311;SDS011;2169;49.086;9.284;2024-01-30T10:31:37;13.83;;;7.00;;
4311;SDS011;2169;49.086;9.284;2024-01-30T10:34:04;6.40;;;5.83;;
4311;SDS011;2169;49.086;9.284;2024-01-30T10:36:31;12.50;;;5.67;;
4311;SDS011;2169;49.086;9.284;2024-01-30T10:39:20;13.10;;;8.47;;
4311;SDS011;2169;49.086;9.284;2024-01-30T10:41:48;9.77;;;7.97;;
4311;SDS011;2169;49.086;9.284;2024-01-30T10:44:22;11.30;;;5.60;;
4311;SDS011;2169;49.086;9.284;2024-01-30T10:46:51;12.33;;;6.57;;
4311;SDS011;2169;49.086;9.284;2024-01-30T10:49:44;6.63;;;5.97;;
4311;SDS011;2169;49.086;9.284;2024-01-30T10:52:12;6.33;;;5.73;;
4311;SDS011;2169;49.086;9.284;2024-01-30T10:54:42;6.40;;;5.07;;
4311;SDS011;2169;49.086;9.284;2024-01-30T10:57:23;6.10;;;5.53;;
4311;SDS011;2169;49.086;9.284;2024-01-30T10:59:51;6.50;;;6.00;;
4311;SDS011;2169;49.086;9.284;2024-01-30T11:02:21;5.83;;;5.20;;
4311;SDS011;2169;49.086;9.284;2024-01-30T11:04:49;11.50;;;6.33;;
4311;SDS011;2169;49.086;9.284;2024-01-30T11:07:26;6.63;;;6.00;;
4311;SDS011;2169;49.086;9.284;2024-01-30T11:09:59;5.33;;;4.63;;
4311;SDS011;2169;49.086;9.284;2024-01-30T11:12:28;12.20;;;6.53;;
4311;SDS011;2169;49.086;9.284;2024-01-30T11:15:02;5.23;;;4.67;;
4311;SDS011;2169;49.086;9.284;2024-01-30T11:17:45;4.53;;;4.10;;
4311;SDS011;2169;49.086;9.284;2024-01-30T11:20:19;5.27;;;4.77;;
4311;SDS011;2169;49.086;9.284;2024-01-30T11:22:49;7.67;;;4.50;;
4311;SDS011;2169;49.086;9.284;2024-01-30T11:27:52;9.50;;;6.37;;
4311;SDS011;2169;49.086;9.284;2024-01-30T11:30:22;10.17;;;4.10;;
4311;SDS011;2169;49.086;9.284;2024-01-30T11:33:01;6.00;;;4.57;;
4311;SDS011;2169;49.086;9.284;2024-01-30T11:35:31;4.93;;;4.50;;
4311;SDS011;2169;49.086;9.284;2024-01-30T11:37:59;4.97;;;4.37;;
4311;SDS011;2169;49.086;9.284;2024-01-30T11:40:27;14.63;;;8.00;;
4311;SDS011;2169;49.086;9.284;2024-01-30T11:42:55;5.50;;;5.20;;
4311;SDS011;2169;49.086;9.284;2024-01-30T11:45:22;9.93;;;4.23;;
4311;SDS011;2169;49.086;9.284;2024-01-30T11:47:48;4.43;;;4.03;;
4311;SDS011;2169;49.086;9.284;2024-01-30T11:50:17;15.03;;;4.70;;
4311;SDS011;2169;49.086;9.284;2024-01-30T11:52:44;3.80;;;3.37;;
4311;SDS011;2169;49.086;9.284;2024-01-30T11:55:11;15.03;;;4.37;;
4311;SDS011;2169;49.086;9.284;2024-01-30T11:57:39;6.57;;;4.70;;
4311;SDS011;2169;49.086;9.284;2024-01-30T12:00:06;6.47;;;4.97;;
4311;SDS011;2169;49.086;9.284;2024-01-30T12:02:41;4.77;;;2.87;;
4311;SDS011;2169;49.086;9.284;2024-01-30T12:05:08;8.20;;;3.53;;
4311;SDS011;2169;49.086;9.284;2024-01-30T12:07:36;3.57;;;3.33;;
4311;SDS011;2169;49.086;9.284;2024-01-30T12:10:03;5.40;;;5.00;;
4311;SDS011;2169;49.086;9.284;2024-01-30T12:12:32;6.47;;;2.90;;
4311;SDS011;2169;49.086;9.284;2024-01-30T12:14:59;5.00;;;3.83;;
4311;SDS011;2169;49.086;9.284;2024-01-30T12:17:28;8.17;;;4.10;;
4311;SDS011;2169;49.086;9.284;2024-01-30T12:20:02;3.27;;;2.93;;
4311;SDS011;2169;49.086;9.284;2024-01-30T12:22:31;4.43;;;2.60;;
4311;SDS011;2169;49.086;9.284;2024-01-30T12:25:01;4.20;;;3.13;;
4311;SDS011;2169;49.086;9.284;2024-01-30T12:27:29;4.13;;;3.93;;
4311;SDS011;2169;49.086;9.284;2024-01-30T12:29:56;8.07;;;7.30;;
4311;SDS011;2169;49.086;9.284;2024-01-30T12:32:23;4.03;;;3.60;;
4311;SDS011;2169;49.086;9.284;2024-01-30T12:34:50;11.10;;;4.73;;
4311;SDS011;2169;49.086;9.284;2024-01-30T12:37:16;5.70;;;4.50;;
4311;SDS011;2169;49.086;9.284;2024-01-30T12:39:47;6.20;;;4.40;;
4311;SDS011;2169;49.086;9.284;2024-01-30T12:42:16;5.03;;;3.30;;
4311;SDS011;2169;49.086;9.284;2024-01-30T12:44:43;10.13;;;3.00;;
4311;SDS011;2169;49.086;9.284;2024-01-30T12:47:10;4.03;;;3.60;;
4311;SDS011;2169;49.086;9.284;2024-01-30T12:49:36;12.63;;;3.27;;
4311;SDS011;2169;49.086;9.284;2024-01-30T12:52:03;3.93;;;3.50;;
4311;SDS011;2169;49.086;9.284;2024-01-30T12:54:30;11.23;;;3.97;;
4311;SDS011;2169;49.086;9.284;2024-01-30T12:56:57;4.73;;;3.50;;
4311;SDS011;2169;49.086;9.284;2024-01-30T12:59:25;3.57;;;3.03;;
4311;SDS011;2169;49.086;9.284;2024-01-30T13:01:52;7.07;;;3.10;;
4311;SDS011;2169;49.086;9.284;2024-01-30T13:04:19;6.80;;;3.67;;
4311;SDS011;2169;49.086;9.284;2024-01-30T13:06:46;4.10;;;3.80;;
4311;SDS011;2169;49.086;9.284;2024-01-30T13:09:12;2.77;;;2.67;;
4311;SDS011;2169;49.086;9.284;2024-01-30T13:11:39;8.10;;;3.77;;
4311;SDS011;2169;49.086;9.284;2024-01-30T13:14:06;16.27;;;3.43;;
4311;SDS011;2169;49.086;9.284;2024-01-30T13:16:34;6.77;;;3.80;;
4311;SDS011;2169;49.086;9.284;2024-01-30T13:19:01;4.33;;;4.13;;
4311;SDS011;2169;49.086;9.284;2024-01-30T13:21:28;5.07;;;3.70;;
4311;SDS011;2169;49.086;9.284;2024-01-30T13:23:55;13.20;;;4.17;;
4311;SDS011;2169;49.086;9.284;2024-01-30T13:26:22;6.00;;;3.23;;
4311;SDS011;2169;49.086;9.284;2024-01-30T13:28:48;5.90;;;3.40;;
4311;SDS011;2169;49.086;9.284;2024-01-30T13:31:15;5.30;;;3.87;;
4311;SDS011;2169;49.086;9.284;2024-01-30T13:33:43;7.97;;;4.10;;
4311;SDS011;2169;49.086;9.284;2024-01-30T13:36:11;3.27;;;2.97;;
4311;SDS011;2169;49.086;9.284;2024-01-30T13:38:37;4.17;;;3.60;;
4311;SDS011;2169;49.086;9.284;2024-01-30T13:41:05;8.60;;;3.60;;
4311;SDS011;2169;49.086;9.284;2024-01-30T13:43:31;4.07;;;3.40;;
4311;SDS011;2169;49.086;9.284;2024-01-30T13:45:58;4.43;;;3.40;;
4311;SDS011;2169;49.086;9.284;2024-01-30T13:48:34;3.50;;;3.30;;
4311;SDS011;2169;49.086;9.284;2024-01-30T13:51:02;5.83;;;4.50;;
4311;SDS011;2169;49.086;9.284;2024-01-30T13:53:29;24.30;;;4.07;;
4311;SDS011;2169;49.086;9.284;2024-01-30T13:55:56;5.40;;;3.27;;
4311;SDS011;2169;49.086;9.284;2024-01-30T13:58:23;2.70;;;2.60;;
4311;SDS011;2169;49.086;9.284;2024-01-30T14:00:50;3.53;;;3.30;;
4311;SDS011;2169;49.086;9.284;2024-01-30T14:03:20;12.47;;;5.00;;
4311;SDS011;2169;49.086;9.284;2024-01-30T14:05:46;14.47;;;4.20;;
4311;SDS011;2169;49.086;9.284;2024-01-30T14:08:14;4.20;;;3.77;;
4311;SDS011;2169;49.086;9.284;2024-01-30T14:10:41;4.83;;;4.40;;
4311;SDS011;2169;49.086;9.284;2024-01-30T14:13:08;4.30;;;3.90;;
4311;SDS011;2169;49.086;9.284;2024-01-30T14:15:36;6.30;;;4.87;;
4311;SDS011;2169;49.086;9.284;2024-01-30T14:18:03;5.40;;;4.90;;
4311;SDS011;2169;49.086;9.284;2024-01-30T14:20:33;6.07;;;5.30;;
4311;SDS011;2169;49.086;9.284;2024-01-30T14:23:00;5.27;;;4.30;;
4311;SDS011;2169;49.086;9.284;2024-01-30T14:25:28;9.03;;;4.60;;
4311;SDS011;2169;49.086;9.284;2024-01-30T14:27:55;9.80;;;4.73;;
4311;SDS011;2169;49.086;9.284;2024-01-30T14:30:22;4.40;;;4.00;;
4311;SDS011;2169;49.086;9.284;2024-01-30T14:32:49;7.67;;;5.20;;
4311;SDS011;2169;49.086;9.284;2024-01-30T14:35:15;6.93;;;6.23;;
4311;SDS011;2169;49.086;9.284;2024-01-30T14:37:44;10.27;;;8.17;;
4311;SDS011;2169;49.086;9.284;2024-01-30T14:40:11;10.70;;;8.57;;
4311;SDS011;2169;49.086;9.284;2024-01-30T14:42:39;13.53;;;8.33;;
4311;SDS011;2169;49.086;9.284;2024-01-30T14:45:06;24.07;;;10.97;;
4311;SDS011;2169;49.086;9.284;2024-01-30T14:47:33;16.63;;;10.40;;
4311;SDS011;2169;49.086;9.284;2024-01-30T14:50:00;12.13;;;9.90;;
4311;SDS011;2169;49.086;9.284;2024-01-30T14:52:27;19.63;;;13.03;;
4311;SDS011;2169;49.086;9.284;2024-01-30T14:54:54;25.10;;;12.30;;
4311;SDS011;2169;49.086;9.284;2024-01-30T14:57:21;15.37;;;12.90;;
4311;SDS011;2169;49.086;9.284;2024-01-30T14:59:49;21.83;;;13.30;;
4311;SDS011;2169;49.086;9.284;2024-01-30T15:02:16;21.80;;;12.20;;
4311;SDS011;2169;49.086;9.284;2024-01-30T15:04:43;19.87;;;13.87;;
4311;SDS011;2169;49.086;9.284;2024-01-30T15:07:09;17.10;;;13.80;;
4311;SDS011;2169;49.086;9.284;2024-01-30T15:09:36;22.40;;;12.87;;
4311;SDS011;2169;49.086;9.284;2024-01-30T15:12:06;26.27;;;14.40;;
4311;SDS011;2169;49.086;9.284;2024-01-30T15:14:33;17.93;;;10.97;;
4311;SDS011;2169;49.086;9.284;2024-01-30T15:17:01;32.70;;;14.27;;
4311;SDS011;2169;49.086;9.284;2024-01-30T15:19:28;31.00;;;16.90;;
4311;SDS011;2169;49.086;9.284;2024-01-30T15:21:54;16.53;;;12.83;;
4311;SDS011;2169;49.086;9.284;2024-01-30T15:24:21;25.27;;;14.20;;
4311;SDS011;2169;49.086;9.284;2024-01-30T15:26:49;19.67;;;12.90;;
4311;SDS011;2169;49.086;9.284;2024-01-30T15:29:16;19.00;;;13.30;;